createdAt,value
2018-05-10T00:01:11.325Z,9.80
2018-05-10T00:03:42.129Z,9.33
2018-05-10T00:06:12.740Z,10.63
2018-05-10T00:08:43.443Z,10.80
2018-05-10T00:11:32.847Z,10.83
2018-05-10T00:14:03.441Z,10.20
2018-05-10T00:16:34.006Z,9.90
2018-05-10T00:19:04.669Z,10.93
2018-05-10T00:21:36.298Z,9.80
2018-05-10T00:24:07.031Z,10.33
2018-05-10T00:26:37.600Z,9.60
2018-05-10T00:29:08.359Z,10.63
2018-05-10T00:31:38.912Z,11.13
2018-05-10T00:34:26.845Z,10.57
2018-05-10T00:36:58.399Z,10.47
2018-05-10T00:39:29.008Z,10.50
2018-05-10T00:41:59.534Z,11.80
2018-05-10T00:44:30.175Z,10.23
2018-05-10T00:47:01.213Z,9.77
2018-05-10T00:49:32.635Z,10.40
2018-05-10T00:52:03.220Z,10.57
2018-05-10T00:54:43.793Z,8.60
2018-05-10T00:57:14.260Z,10.80
2018-05-10T00:59:45.664Z,11.27
2018-05-10T01:02:36.179Z,10.10
2018-05-10T01:05:06.851Z,11.33
2018-05-10T01:07:38.158Z,11.60
2018-05-10T01:10:10.118Z,10.60
2018-05-10T01:12:40.732Z,10.43
2018-05-10T01:15:11.329Z,9.23
2018-05-10T01:17:53.893Z,9.73
2018-05-10T01:20:24.470Z,10.37
2018-05-10T01:22:55.188Z,13.10
2018-05-10T01:25:25.706Z,10.17
2018-05-10T01:27:56.338Z,12.13
2018-05-10T01:30:39.054Z,12.33
2018-05-10T01:33:09.512Z,10.90
2018-05-10T01:36:43.630Z,11.30
2018-05-10T01:39:14.214Z,10.50
2018-05-10T01:41:45.482Z,10.40
2018-05-10T01:44:16.115Z,10.60
2018-05-10T01:49:44.054Z,10.90
2018-05-10T01:52:14.531Z,10.40
2018-05-10T01:54:45.846Z,10.00
2018-05-10T01:57:17.699Z,10.30
2018-05-10T01:59:48.272Z,10.00
2018-05-10T02:02:18.869Z,10.07
2018-05-10T02:04:49.656Z,10.23
2018-05-10T02:07:20.140Z,9.90
2018-05-10T02:09:50.763Z,9.97
2018-05-10T02:12:38.528Z,10.30
2018-05-10T02:15:09.076Z,9.50
2018-05-10T02:17:40.303Z,10.30
2018-05-10T02:20:10.986Z,11.43
2018-05-10T02:22:41.469Z,11.80
2018-05-10T02:25:11.961Z,11.00
2018-05-10T02:27:42.431Z,10.50
2018-05-10T02:30:13.093Z,10.47
2018-05-10T02:32:44.304Z,11.07
2018-05-10T02:35:14.970Z,11.27
2018-05-10T02:37:46.210Z,10.90
2018-05-10T02:40:16.805Z,9.93
2018-05-10T02:42:47.290Z,10.70
2018-05-10T02:45:17.874Z,11.57
2018-05-10T02:47:48.351Z,11.93
2018-05-10T02:50:18.927Z,12.00
2018-05-10T02:52:49.486Z,12.93
2018-05-10T02:55:20.130Z,12.73
2018-05-10T02:57:50.636Z,12.23
2018-05-10T03:00:21.210Z,12.37
2018-05-10T03:02:51.820Z,11.87
2018-05-10T03:05:22.376Z,12.03
2018-05-10T03:07:52.832Z,10.80
2018-05-10T03:13:32.738Z,11.00
2018-05-10T03:16:03.415Z,10.20
2018-05-10T03:18:33.853Z,10.70
2018-05-10T03:21:04.437Z,9.80
2018-05-10T03:23:51.900Z,10.67
2018-05-10T03:26:22.404Z,9.90
2018-05-10T03:28:52.845Z,10.67
2018-05-10T03:31:46.031Z,9.70
2018-05-10T03:34:16.481Z,11.10
2018-05-10T03:36:47.866Z,10.20
2018-05-10T03:39:18.391Z,10.37
2018-05-10T03:41:49.847Z,9.53
2018-05-10T03:44:20.441Z,10.10
2018-05-10T03:46:50.998Z,9.77
2018-05-10T03:49:21.631Z,10.03
2018-05-10T03:51:52.251Z,10.23
2018-05-10T03:54:29.513Z,9.73
2018-05-10T03:57:00.847Z,10.33
2018-05-10T03:59:31.313Z,9.53
2018-05-10T04:02:01.928Z,9.43
2018-05-10T04:11:18.022Z,10.07
2018-05-10T04:13:48.624Z,10.50
2018-05-10T04:16:19.042Z,10.80
2018-05-10T04:18:51.894Z,11.20
2018-05-10T04:21:22.405Z,10.13
2018-05-10T04:23:53.576Z,10.93
2018-05-10T04:26:23.983Z,12.20
2018-05-10T04:28:54.366Z,12.67
2018-05-10T04:31:24.876Z,13.73
2018-05-10T04:34:18.237Z,13.00
2018-05-10T04:36:48.984Z,12.80
2018-05-10T04:39:19.405Z,12.97
2018-05-10T04:42:05.645Z,15.27
2018-05-10T04:44:36.134Z,13.73
2018-05-10T04:47:06.813Z,14.47
2018-05-10T04:49:39.385Z,13.50
2018-05-10T04:52:09.842Z,14.13
2018-05-10T04:54:41.041Z,16.43
2018-05-10T04:57:12.286Z,20.80
2018-05-10T04:59:43.388Z,23.80
2018-05-10T05:02:14.051Z,24.67
2018-05-10T05:04:44.993Z,32.20
2018-05-10T05:07:15.600Z,45.80
2018-05-10T05:09:46.234Z,40.27
2018-05-10T05:12:16.737Z,44.00
2018-05-10T05:14:49.682Z,44.43
2018-05-10T05:17:20.176Z,54.03
2018-05-10T05:19:50.766Z,58.90
2018-05-10T05:22:21.458Z,59.27
2018-05-10T05:24:52.177Z,55.43
2018-05-10T05:27:22.822Z,56.37
2018-05-10T05:29:55.809Z,57.50
2018-05-10T05:32:27.097Z,59.43
2018-05-10T05:34:57.626Z,60.00
2018-05-10T05:37:28.103Z,55.90
2018-05-10T05:39:58.611Z,56.03
2018-05-10T05:42:29.108Z,56.90
2018-05-10T05:44:59.678Z,53.93
2018-05-10T05:47:30.790Z,52.83
2018-05-10T05:50:01.249Z,55.17
2018-05-10T05:52:31.758Z,54.43
2018-05-10T05:55:02.748Z,58.63
2018-05-10T05:57:33.946Z,57.87
2018-05-10T06:00:04.702Z,55.47
2018-05-10T06:02:35.457Z,57.70
2018-05-10T06:05:06.050Z,56.17
2018-05-10T06:07:36.663Z,55.10
2018-05-10T06:10:08.087Z,54.80
2018-05-10T06:12:38.681Z,53.63
2018-05-10T06:15:12.425Z,53.87
2018-05-10T06:17:42.985Z,53.13
2018-05-10T06:20:13.547Z,50.80
2018-05-10T06:22:44.120Z,50.67
2018-05-10T06:25:25.106Z,48.10
2018-05-10T06:28:07.824Z,44.63
2018-05-10T06:30:41.316Z,46.00
2018-05-10T06:33:15.505Z,45.03
2018-05-10T06:35:51.248Z,42.07
2018-05-10T06:38:22.313Z,42.10
2018-05-10T06:40:52.800Z,41.77
2018-05-10T06:43:30.225Z,43.50
2018-05-10T06:46:03.170Z,42.03
2018-05-10T06:48:37.349Z,40.53
2018-05-10T06:51:07.853Z,36.70
2018-05-10T06:53:43.638Z,41.07
2018-05-10T06:56:14.513Z,38.77
2018-05-10T06:58:45.029Z,38.90
2018-05-10T07:01:19.360Z,40.50
2018-05-10T07:03:56.005Z,36.70
2018-05-10T07:06:27.403Z,37.20
2018-05-10T07:08:59.610Z,36.77
2018-05-10T07:11:30.688Z,35.20
2018-05-10T07:14:01.060Z,33.90
2018-05-10T07:16:31.322Z,34.00
2018-05-10T07:19:01.546Z,30.40
2018-05-10T07:21:31.914Z,33.70
2018-05-10T07:24:02.109Z,31.80
2018-05-10T07:26:32.435Z,29.70
2018-05-10T07:29:02.663Z,27.50
2018-05-10T07:31:32.967Z,29.30
2018-05-10T07:34:03.208Z,27.90
2018-05-10T07:36:33.521Z,26.73
2018-05-10T07:39:05.161Z,24.70
2018-05-10T07:41:35.397Z,26.53
2018-05-10T07:44:05.765Z,24.37
2018-05-10T07:46:37.458Z,23.37
2018-05-10T07:49:08.504Z,21.23
2018-05-10T07:51:38.725Z,20.60
2018-05-10T07:54:09.011Z,19.90
2018-05-10T07:56:39.611Z,20.10
2018-05-10T07:59:10.038Z,21.70
2018-05-10T08:01:40.352Z,18.00
2018-05-10T08:04:10.569Z,18.40
2018-05-10T08:06:41.657Z,16.80
2018-05-10T08:09:12.274Z,18.30
2018-05-10T08:11:42.495Z,15.90
2018-05-10T08:14:12.729Z,15.90
2018-05-10T08:16:44.079Z,15.90
2018-05-10T08:19:14.489Z,15.27
2018-05-10T08:21:44.830Z,15.40
2018-05-10T08:24:15.376Z,13.20
2018-05-10T08:26:46.901Z,14.60
2018-05-10T08:29:17.191Z,14.30
2018-05-10T08:31:47.513Z,14.80
2018-05-10T08:34:18.677Z,13.47
2018-05-10T08:36:49.139Z,13.50
2018-05-10T08:39:19.431Z,12.60
2018-05-10T08:41:49.677Z,13.13
2018-05-10T08:44:19.996Z,13.13
2018-05-10T08:46:50.371Z,13.43
2018-05-10T08:49:20.682Z,12.00
2018-05-10T08:51:51.742Z,13.37
2018-05-10T08:54:22.154Z,12.70
2018-05-10T08:56:52.546Z,12.90
2018-05-10T08:59:24.509Z,12.90
2018-05-10T09:02:01.052Z,14.20
2018-05-10T09:04:31.283Z,12.40
2018-05-10T09:07:01.643Z,12.73
2018-05-10T09:09:34.292Z,12.80
2018-05-10T09:12:05.776Z,12.37
2018-05-10T09:14:38.796Z,14.00
2018-05-10T09:17:12.352Z,13.30
2018-05-10T09:19:44.137Z,12.67
2018-05-10T09:22:16.524Z,14.30
2018-05-10T09:24:47.722Z,14.77
2018-05-10T09:27:19.383Z,15.53
2018-05-10T09:29:50.738Z,16.60
2018-05-10T09:32:32.946Z,15.00
2018-05-10T09:35:05.359Z,15.10
2018-05-10T09:37:38.161Z,15.47
2018-05-10T09:40:11.280Z,15.83
2018-05-10T09:42:42.596Z,15.63
2018-05-10T09:45:14.879Z,14.83
2018-05-10T09:47:53.347Z,17.33
2018-05-10T09:50:26.810Z,14.37
2018-05-10T09:52:58.394Z,16.13
2018-05-10T09:55:41.745Z,15.90
2018-05-10T09:58:13.882Z,16.00
2018-05-10T10:00:45.477Z,14.37
2018-05-10T10:03:15.844Z,12.93
2018-05-10T10:05:46.828Z,14.30
2018-05-10T10:08:17.081Z,14.07
2018-05-10T10:10:51.859Z,12.63
2018-05-10T10:13:22.114Z,15.00
2018-05-10T10:15:53.122Z,13.10
2018-05-10T10:18:23.325Z,13.10
2018-05-10T10:20:53.518Z,12.80
2018-05-10T10:23:23.890Z,14.17
2018-05-10T10:25:55.001Z,12.23
2018-05-10T10:28:25.446Z,13.60
2018-05-10T10:30:55.722Z,12.00
2018-05-10T10:33:28.956Z,12.07
2018-05-10T10:35:59.282Z,11.37
2018-05-10T10:38:29.715Z,11.27
2018-05-10T10:41:00.242Z,11.90
2018-05-10T10:43:30.619Z,11.87
2018-05-10T10:46:01.778Z,11.40
2018-05-10T10:48:32.170Z,10.90
2018-05-10T10:51:02.465Z,8.90
2018-05-10T10:53:33.441Z,9.10
2018-05-10T10:56:04.126Z,9.13
2018-05-10T10:58:34.558Z,9.50
2018-05-10T11:01:04.899Z,10.30
2018-05-10T11:03:35.260Z,9.57
2018-05-10T11:06:06.338Z,8.97
2018-05-10T11:08:40.366Z,7.97
2018-05-10T11:11:10.685Z,7.10
2018-05-10T11:13:40.936Z,6.40
2018-05-10T11:16:11.161Z,7.37
2018-05-10T11:18:41.380Z,6.57
2018-05-10T11:21:12.398Z,7.20
2018-05-10T11:23:43.419Z,6.73
2018-05-10T11:26:13.673Z,6.77
2018-05-10T11:28:44.889Z,6.17
2018-05-10T11:31:15.486Z,7.20
2018-05-10T11:33:45.889Z,7.40
2018-05-10T11:36:16.210Z,8.20
2018-05-10T11:38:46.494Z,7.93
2018-05-10T11:41:16.929Z,8.50
2018-05-10T11:43:47.659Z,8.10
2018-05-10T11:46:17.998Z,7.80
2018-05-10T11:48:48.248Z,8.10
2018-05-10T11:51:20.094Z,7.90
2018-05-10T11:53:51.376Z,8.70
2018-05-10T11:56:21.614Z,8.13
2018-05-10T11:58:51.822Z,7.70
2018-05-10T12:01:22.126Z,7.80
2018-05-10T12:03:52.305Z,10.97
2018-05-10T12:06:22.451Z,9.47
2018-05-10T12:08:52.716Z,8.07
2018-05-10T12:11:23.070Z,9.20
2018-05-10T12:13:53.277Z,9.77
2018-05-10T12:16:23.589Z,7.93
2018-05-10T12:18:53.786Z,8.67
2018-05-10T12:21:24.357Z,9.50
2018-05-10T12:23:54.579Z,8.20
2018-05-10T12:26:24.797Z,10.40
2018-05-10T12:28:54.996Z,9.67
2018-05-10T12:31:25.553Z,9.90
2018-05-10T12:33:55.826Z,10.23
2018-05-10T12:36:26.114Z,10.80
2018-05-10T12:38:56.452Z,10.33
2018-05-10T12:41:26.698Z,9.83
2018-05-10T12:43:57.037Z,10.97
2018-05-10T12:46:27.370Z,12.00
2018-05-10T12:48:57.701Z,12.10
2018-05-10T12:51:28.026Z,12.60
2018-05-10T12:53:58.606Z,10.40
2018-05-10T12:56:29.788Z,11.80
2018-05-10T12:59:00.043Z,12.90
2018-05-10T13:01:38.172Z,13.90
2018-05-10T13:04:08.503Z,12.70
2018-05-10T13:06:38.795Z,12.33
2018-05-10T13:09:11.352Z,12.77
2018-05-10T13:11:41.589Z,13.07
2018-05-10T13:14:12.785Z,16.40
2018-05-10T13:16:42.993Z,16.50
2018-05-10T13:19:13.271Z,15.53
2018-05-10T13:21:43.537Z,15.57
2018-05-10T13:24:13.870Z,17.87
2018-05-10T13:26:44.110Z,17.17
2018-05-10T13:29:14.425Z,19.30
2018-05-10T13:31:47.047Z,20.00
2018-05-10T13:34:17.350Z,18.97
2018-05-10T13:36:47.564Z,18.63
2018-05-10T13:39:17.762Z,20.80
2018-05-10T13:41:49.092Z,18.87
2018-05-10T13:44:19.276Z,18.90
2018-05-10T13:46:49.510Z,19.07
2018-05-10T13:49:19.866Z,20.37
2018-05-10T13:51:50.135Z,19.50
2018-05-10T13:54:20.358Z,18.20
2018-05-10T13:56:51.005Z,18.20
2018-05-10T13:59:21.994Z,20.63
2018-05-10T14:01:52.221Z,18.90
2018-05-10T14:04:22.622Z,18.20
2018-05-10T14:06:52.912Z,20.23
2018-05-10T14:09:23.206Z,17.80
2018-05-10T14:11:53.826Z,16.97
2018-05-10T14:14:24.843Z,16.30
2018-05-10T14:16:55.081Z,17.53
2018-05-10T14:19:26.691Z,17.40
2018-05-10T14:21:57.720Z,17.30
2018-05-10T14:24:27.976Z,17.60
2018-05-10T14:26:58.265Z,17.63
2018-05-10T14:29:28.449Z,17.63
2018-05-10T14:31:58.783Z,17.13
2018-05-10T14:34:29.058Z,17.33
2018-05-10T14:36:59.288Z,18.13
2018-05-10T14:39:29.644Z,17.83
2018-05-10T14:42:00.036Z,19.60
2018-05-10T14:44:30.254Z,19.10
2018-05-10T14:47:01.598Z,17.97
2018-05-10T14:49:31.881Z,20.17
2018-05-10T14:52:03.043Z,18.57
2018-05-10T14:54:33.721Z,20.27
2018-05-10T14:57:04.262Z,17.57
2018-05-10T14:59:34.513Z,17.20
2018-05-10T15:02:05.705Z,16.57
2018-05-10T15:04:36.018Z,16.70
2018-05-10T15:07:06.741Z,17.40
2018-05-10T15:09:37.112Z,16.57
2018-05-10T15:12:07.365Z,17.40
2018-05-10T15:14:37.600Z,15.93
2018-05-10T15:17:07.873Z,15.77
2018-05-10T15:19:38.205Z,15.10
2018-05-10T15:22:09.809Z,15.57
2018-05-10T15:24:40.886Z,15.30
2018-05-10T15:27:11.885Z,15.90
2018-05-10T15:29:44.143Z,13.70
2018-05-10T15:32:15.591Z,13.23
2018-05-10T15:34:47.303Z,13.10
2018-05-10T15:37:18.399Z,13.60
2018-05-10T15:39:48.639Z,13.10
2018-05-10T15:42:18.953Z,13.63
2018-05-10T15:44:49.249Z,13.10
2018-05-10T15:47:19.709Z,13.10
2018-05-10T15:49:49.928Z,12.40
2018-05-10T15:52:20.253Z,13.17
2018-05-10T15:54:50.480Z,12.63
2018-05-10T15:57:20.986Z,13.07
2018-05-10T15:59:51.183Z,13.53
2018-05-10T16:02:22.236Z,13.30
2018-05-10T16:04:59.882Z,13.47
2018-05-10T16:07:30.099Z,12.77
2018-05-10T16:10:00.330Z,11.83
2018-05-10T16:12:30.556Z,12.53
2018-05-10T16:15:01.569Z,11.90
2018-05-10T16:17:31.777Z,12.90
2018-05-10T16:20:02.190Z,12.47
2018-05-10T16:22:32.493Z,12.93
2018-05-10T16:25:02.696Z,11.90
2018-05-10T16:27:33.757Z,11.90
2018-05-10T16:30:05.005Z,13.43
2018-05-10T16:32:35.525Z,10.83
2018-05-10T16:35:06.540Z,11.30
2018-05-10T16:37:36.807Z,13.37
2018-05-10T16:40:09.410Z,13.37
2018-05-10T16:42:40.501Z,12.47
2018-05-10T16:45:10.807Z,13.03
2018-05-10T16:47:41.934Z,12.00
2018-05-10T16:50:12.130Z,11.53
2018-05-10T16:52:42.389Z,11.70
2018-05-10T16:55:13.383Z,11.50
2018-05-10T16:57:44.933Z,12.40
2018-05-10T17:00:15.568Z,11.17
2018-05-10T17:02:45.750Z,10.97
2018-05-10T17:05:16.011Z,11.57
2018-05-10T17:07:47.391Z,12.37
2018-05-10T17:10:17.622Z,11.50
2018-05-10T17:12:47.905Z,11.57
2018-05-10T17:15:18.423Z,11.83
2018-05-10T17:17:48.707Z,12.17
2018-05-10T17:20:18.894Z,11.13
2018-05-10T17:22:49.218Z,11.10
2018-05-10T17:25:19.506Z,11.57
2018-05-10T17:27:50.791Z,12.50
2018-05-10T17:30:21.077Z,11.50
2018-05-10T17:32:51.442Z,11.90
2018-05-10T17:35:21.645Z,11.30
2018-05-10T17:37:51.917Z,11.30
2018-05-10T17:40:23.031Z,11.57
2018-05-10T17:42:53.358Z,10.90
2018-05-10T17:45:25.978Z,13.07
2018-05-10T17:47:56.226Z,12.33
2018-05-10T17:50:26.533Z,11.50
2018-05-10T17:52:57.557Z,11.30
2018-05-10T17:55:27.934Z,10.50
2018-05-10T17:58:00.186Z,9.83
2018-05-10T18:00:30.562Z,8.57
2018-05-10T18:03:00.806Z,8.37
2018-05-10T18:05:32.217Z,8.80
2018-05-10T18:08:03.041Z,8.47
2018-05-10T18:10:33.227Z,9.30
2018-05-10T18:13:03.570Z,7.40
2018-05-10T18:15:34.632Z,7.57
2018-05-10T18:18:04.865Z,7.80
2018-05-10T18:20:35.830Z,7.77
2018-05-10T18:23:06.039Z,8.43
2018-05-10T18:28:37.594Z,7.60
2018-05-10T18:31:08.612Z,7.47
2018-05-10T18:33:51.589Z,7.40
2018-05-10T18:36:21.794Z,7.03
2018-05-10T18:38:52.767Z,8.37
2018-05-10T18:41:22.904Z,7.97
2018-05-10T18:43:53.593Z,7.67
2018-05-10T18:46:26.215Z,6.57
2018-05-10T18:48:56.458Z,6.30
2018-05-10T18:51:26.609Z,6.33
2018-05-10T18:53:56.946Z,6.93
2018-05-10T18:56:27.880Z,7.00
2018-05-10T18:58:59.159Z,6.70
2018-05-10T19:01:30.001Z,8.63
2018-05-10T19:04:01.096Z,7.53
2018-05-10T19:06:32.904Z,8.90
2018-05-10T19:09:04.010Z,7.07
2018-05-10T19:11:35.874Z,6.87
2018-05-10T19:14:06.235Z,8.10
2018-05-10T19:16:36.450Z,7.67
2018-05-10T19:19:07.522Z,8.30
2018-05-10T19:21:39.041Z,6.33
2018-05-10T19:24:09.299Z,7.13
2018-05-10T19:26:39.636Z,8.80
2018-05-10T19:29:10.761Z,9.03
2018-05-10T19:31:41.064Z,8.27
2018-05-10T19:34:12.054Z,9.67
2018-05-10T19:36:42.261Z,11.60
2018-05-10T19:39:12.505Z,9.63
2018-05-10T19:41:42.761Z,10.40
2018-05-10T19:44:12.985Z,9.00
2018-05-10T19:46:43.953Z,8.53
2018-05-10T19:49:14.253Z,9.37
2018-05-10T19:51:44.592Z,8.90
2018-05-10T19:54:14.948Z,10.00
2018-05-10T19:56:45.359Z,10.13
2018-05-10T19:59:30.501Z,9.80
2018-05-10T20:02:00.801Z,9.57
2018-05-10T20:04:31.331Z,10.17
2018-05-10T20:07:01.666Z,11.00
2018-05-10T20:09:31.943Z,9.83
2018-05-10T20:12:02.219Z,11.00
2018-05-10T20:14:32.482Z,9.53
2018-05-10T20:17:02.797Z,9.30
2018-05-10T20:19:33.111Z,10.20
2018-05-10T20:22:04.231Z,10.30
2018-05-10T20:24:34.474Z,9.43
2018-05-10T20:27:04.785Z,9.17
2018-05-10T20:29:35.036Z,9.83
2018-05-10T20:32:05.889Z,9.77
2018-05-10T20:34:36.097Z,10.03
2018-05-10T20:37:06.523Z,10.20
2018-05-10T20:39:36.742Z,10.13
2018-05-10T20:42:07.879Z,10.70
2018-05-10T20:44:38.227Z,9.13
2018-05-10T20:47:08.616Z,10.30
2018-05-10T20:49:38.913Z,10.40
2018-05-10T20:52:09.158Z,10.10
2018-05-10T20:54:40.194Z,9.87
2018-05-10T20:57:10.589Z,10.60
2018-05-10T20:59:40.857Z,10.13
2018-05-10T21:02:11.091Z,10.77
2018-05-10T21:04:42.476Z,9.10
2018-05-10T21:07:14.226Z,9.90
2018-05-10T21:09:44.590Z,10.47
2018-05-10T21:12:23.622Z,9.60
2018-05-10T21:14:55.354Z,8.10
2018-05-10T21:17:25.650Z,7.77
2018-05-10T21:19:56.751Z,8.97
2018-05-10T21:22:27.366Z,7.47
2018-05-10T21:24:57.685Z,6.80
2018-05-10T21:27:27.943Z,7.30
2018-05-10T21:29:59.755Z,7.40
2018-05-10T21:32:34.174Z,7.37
2018-05-10T21:35:15.436Z,7.53
2018-05-10T21:37:51.098Z,6.50
2018-05-10T21:40:21.706Z,6.60
2018-05-10T21:42:52.060Z,6.50
2018-05-10T21:45:22.252Z,7.37
2018-05-10T21:47:52.543Z,8.03
2018-05-10T21:50:28.145Z,6.80
2018-05-10T21:52:58.478Z,7.50
2018-05-10T21:55:28.736Z,7.33
2018-05-10T21:57:59.032Z,8.20
2018-05-10T22:00:29.295Z,7.80
2018-05-10T22:02:59.585Z,7.80
2018-05-10T22:05:29.893Z,8.20
2018-05-10T22:08:00.378Z,7.73
2018-05-10T22:10:30.635Z,7.67
2018-05-10T22:13:01.363Z,9.40
2018-05-10T22:15:31.673Z,8.57
2018-05-10T22:18:02.738Z,8.43
2018-05-10T22:20:34.278Z,9.50
2018-05-10T22:23:04.631Z,8.27
2018-05-10T22:25:34.929Z,8.27
2018-05-10T22:28:05.652Z,8.40
2018-05-10T22:30:36.959Z,8.00
2018-05-10T22:33:07.408Z,10.10
2018-05-10T22:35:37.985Z,8.93
2018-05-10T22:38:08.304Z,9.60
2018-05-10T22:40:38.769Z,9.40
2018-05-10T22:43:09.106Z,9.33
2018-05-10T22:45:40.114Z,9.50
2018-05-10T22:48:10.490Z,8.60
2018-05-10T22:50:43.147Z,8.10
2018-05-10T22:53:13.886Z,8.90
2018-05-10T22:55:44.177Z,7.60
2018-05-10T22:58:14.480Z,8.33
2018-05-10T23:00:44.736Z,9.93
2018-05-10T23:03:15.964Z,8.40
2018-05-10T23:05:47.080Z,7.93
2018-05-10T23:08:17.505Z,9.50
2018-05-10T23:10:47.793Z,8.80
2018-05-10T23:13:18.075Z,8.80
2018-05-10T23:15:48.422Z,9.40
2018-05-10T23:18:18.762Z,8.47
2018-05-10T23:20:49.018Z,9.80
2018-05-10T23:23:19.749Z,9.17
2018-05-10T23:25:50.015Z,8.23
2018-05-10T23:28:20.339Z,10.07
2018-05-10T23:30:50.632Z,9.50
2018-05-10T23:33:22.276Z,8.40
2018-05-10T23:35:53.375Z,9.40
2018-05-10T23:38:23.775Z,9.10
2018-05-10T23:40:56.510Z,9.00
2018-05-10T23:43:26.759Z,9.37
2018-05-10T23:45:57.134Z,8.67
2018-05-10T23:48:27.416Z,8.83
2018-05-10T23:50:57.749Z,9.03
2018-05-10T23:53:28.081Z,8.50
2018-05-10T23:55:58.330Z,9.40
2018-05-10T23:58:29.003Z,8.90
